sensor_id;sensor_type;location;lat;lon;timestamp;P1;durP1;ratioP1;P2;durP2;ratioP2
60225;SDS011;46090;48.436;11.410;2022-07-23T00:00:20;9.68;;;6.00;;
60225;SDS011;46090;48.436;11.410;2022-07-23T00:02:48;11.88;;;6.75;;
60225;SDS011;46090;48.436;11.410;2022-07-23T00:05:16;9.70;;;5.63;;
60225;SDS011;46090;48.436;11.410;2022-07-23T00:07:45;10.10;;;6.35;;
60225;SDS011;46090;48.436;11.410;2022-07-23T00:10:11;11.82;;;6.05;;
60225;SDS011;46090;48.436;11.410;2022-07-23T00:12:39;9.98;;;6.15;;
60225;SDS011;46090;48.436;11.410;2022-07-23T00:15:18;10.93;;;6.50;;
60225;SDS011;46090;48.436;11.410;2022-07-23T00:17:46;13.38;;;6.38;;
60225;SDS011;46090;48.436;11.410;2022-07-23T00:20:13;10.63;;;5.82;;
60225;SDS011;46090;48.436;11.410;2022-07-23T00:22:50;11.27;;;6.82;;
60225;SDS011;46090;48.436;11.410;2022-07-23T00:25:19;11.32;;;6.40;;
60225;SDS011;46090;48.436;11.410;2022-07-23T00:27:56;10.98;;;6.72;;
60225;SDS011;46090;48.436;11.410;2022-07-23T00:30:26;13.15;;;7.43;;
60225;SDS011;46090;48.436;11.410;2022-07-23T00:32:57;10.60;;;6.30;;
60225;SDS011;46090;48.436;11.410;2022-07-23T00:35:26;11.63;;;6.20;;
60225;SDS011;46090;48.436;11.410;2022-07-23T00:37:53;13.15;;;6.30;;
60225;SDS011;46090;48.436;11.410;2022-07-23T00:40:22;10.60;;;6.35;;
60225;SDS011;46090;48.436;11.410;2022-07-23T00:42:49;10.45;;;6.35;;
60225;SDS011;46090;48.436;11.410;2022-07-23T00:45:16;13.90;;;7.10;;
60225;SDS011;46090;48.436;11.410;2022-07-23T00:47:43;11.55;;;6.50;;
60225;SDS011;46090;48.436;11.410;2022-07-23T00:50:10;12.07;;;6.72;;
60225;SDS011;46090;48.436;11.410;2022-07-23T00:52:38;11.13;;;6.55;;
60225;SDS011;46090;48.436;11.410;2022-07-23T00:55:06;12.13;;;6.80;;
60225;SDS011;46090;48.436;11.410;2022-07-23T00:57:33;14.73;;;6.55;;
60225;SDS011;46090;48.436;11.410;2022-07-23T01:00:02;11.43;;;6.82;;
60225;SDS011;46090;48.436;11.410;2022-07-23T01:02:34;12.10;;;6.63;;
60225;SDS011;46090;48.436;11.410;2022-07-23T01:05:02;10.82;;;6.80;;
60225;SDS011;46090;48.436;11.410;2022-07-23T01:07:31;10.15;;;6.78;;
60225;SDS011;46090;48.436;11.410;2022-07-23T01:09:57;14.18;;;6.60;;
60225;SDS011;46090;48.436;11.410;2022-07-23T01:12:25;12.07;;;6.68;;
60225;SDS011;46090;48.436;11.410;2022-07-23T01:14:57;12.95;;;5.90;;
60225;SDS011;46090;48.436;11.410;2022-07-23T01:17:27;14.13;;;6.40;;
60225;SDS011;46090;48.436;11.410;2022-07-23T01:19:55;19.95;;;7.10;;
60225;SDS011;46090;48.436;11.410;2022-07-23T01:22:22;12.45;;;6.32;;
60225;SDS011;46090;48.436;11.410;2022-07-23T01:24:49;13.52;;;5.28;;
60225;SDS011;46090;48.436;11.410;2022-07-23T01:27:21;9.70;;;5.00;;
60225;SDS011;46090;48.436;11.410;2022-07-23T01:29:52;8.50;;;4.28;;
60225;SDS011;46090;48.436;11.410;2022-07-23T01:32:22;9.52;;;4.55;;
60225;SDS011;46090;48.436;11.410;2022-07-23T01:34:49;9.68;;;4.47;;
60225;SDS011;46090;48.436;11.410;2022-07-23T01:37:15;8.60;;;4.53;;
60225;SDS011;46090;48.436;11.410;2022-07-23T01:39:44;9.65;;;4.20;;
60225;SDS011;46090;48.436;11.410;2022-07-23T01:42:11;9.45;;;3.90;;
60225;SDS011;46090;48.436;11.410;2022-07-23T01:44:39;7.95;;;4.15;;
60225;SDS011;46090;48.436;11.410;2022-07-23T01:47:12;8.35;;;4.20;;
60225;SDS011;46090;48.436;11.410;2022-07-23T01:49:41;12.70;;;4.22;;
60225;SDS011;46090;48.436;11.410;2022-07-23T01:52:31;9.75;;;4.47;;
60225;SDS011;46090;48.436;11.410;2022-07-23T01:54:58;7.22;;;3.88;;
60225;SDS011;46090;48.436;11.410;2022-07-23T01:57:25;9.75;;;4.65;;
60225;SDS011;46090;48.436;11.410;2022-07-23T01:59:52;9.35;;;4.68;;
60225;SDS011;46090;48.436;11.410;2022-07-23T02:02:23;8.48;;;4.82;;
60225;SDS011;46090;48.436;11.410;2022-07-23T02:04:52;9.52;;;5.00;;
60225;SDS011;46090;48.436;11.410;2022-07-23T02:07:24;13.45;;;4.85;;
60225;SDS011;46090;48.436;11.410;2022-07-23T02:09:51;9.07;;;5.38;;
60225;SDS011;46090;48.436;11.410;2022-07-23T02:12:18;11.70;;;5.55;;
60225;SDS011;46090;48.436;11.410;2022-07-23T02:14:45;12.23;;;6.18;;
60225;SDS011;46090;48.436;11.410;2022-07-23T02:17:11;13.27;;;5.70;;
60225;SDS011;46090;48.436;11.410;2022-07-23T02:19:38;12.73;;;5.72;;
60225;SDS011;46090;48.436;11.410;2022-07-23T02:22:05;10.95;;;6.05;;
60225;SDS011;46090;48.436;11.410;2022-07-23T02:24:33;11.43;;;6.03;;
60225;SDS011;46090;48.436;11.410;2022-07-23T02:27:04;11.88;;;5.70;;
60225;SDS011;46090;48.436;11.410;2022-07-23T02:29:32;11.68;;;5.82;;
60225;SDS011;46090;48.436;11.410;2022-07-23T02:31:59;9.73;;;5.22;;
60225;SDS011;46090;48.436;11.410;2022-07-23T02:34:25;9.63;;;5.07;;
60225;SDS011;46090;48.436;11.410;2022-07-23T02:36:52;7.80;;;4.97;;
60225;SDS011;46090;48.436;11.410;2022-07-23T02:39:20;11.00;;;5.88;;
60225;SDS011;46090;48.436;11.410;2022-07-23T02:41:48;10.43;;;5.40;;
60225;SDS011;46090;48.436;11.410;2022-07-23T02:44:16;11.30;;;6.05;;
60225;SDS011;46090;48.436;11.410;2022-07-23T02:46:47;10.13;;;5.82;;
60225;SDS011;46090;48.436;11.410;2022-07-23T02:49:14;11.82;;;5.13;;
60225;SDS011;46090;48.436;11.410;2022-07-23T02:51:41;9.55;;;5.88;;
60225;SDS011;46090;48.436;11.410;2022-07-23T02:54:08;11.70;;;5.80;;
60225;SDS011;46090;48.436;11.410;2022-07-23T02:56:35;11.75;;;6.35;;
60225;SDS011;46090;48.436;11.410;2022-07-23T02:59:02;8.93;;;5.75;;
60225;SDS011;46090;48.436;11.410;2022-07-23T03:01:30;11.32;;;6.00;;
60225;SDS011;46090;48.436;11.410;2022-07-23T03:04:00;12.35;;;5.85;;
60225;SDS011;46090;48.436;11.410;2022-07-23T03:06:28;11.02;;;6.18;;
60225;SDS011;46090;48.436;11.410;2022-07-23T03:08:55;12.88;;;5.78;;
60225;SDS011;46090;48.436;11.410;2022-07-23T03:11:22;11.57;;;6.00;;
60225;SDS011;46090;48.436;11.410;2022-07-23T03:13:49;13.13;;;5.80;;
60225;SDS011;46090;48.436;11.410;2022-07-23T03:16:17;9.75;;;5.47;;
60225;SDS011;46090;48.436;11.410;2022-07-23T03:18:45;12.75;;;5.53;;
60225;SDS011;46090;48.436;11.410;2022-07-23T03:21:13;10.35;;;5.70;;
60225;SDS011;46090;48.436;11.410;2022-07-23T03:23:40;10.50;;;5.80;;
60225;SDS011;46090;48.436;11.410;2022-07-23T03:26:07;10.63;;;5.38;;
60225;SDS011;46090;48.436;11.410;2022-07-23T03:28:34;11.02;;;5.40;;
60225;SDS011;46090;48.436;11.410;2022-07-23T03:31:02;7.80;;;4.88;;
60225;SDS011;46090;48.436;11.410;2022-07-23T03:33:28;9.43;;;5.15;;
60225;SDS011;46090;48.436;11.410;2022-07-23T03:35:55;8.73;;;5.40;;
60225;SDS011;46090;48.436;11.410;2022-07-23T03:38:29;9.38;;;3.97;;
60225;SDS011;46090;48.436;11.410;2022-07-23T03:40:57;7.10;;;3.67;;
60225;SDS011;46090;48.436;11.410;2022-07-23T03:43:24;7.70;;;4.10;;
60225;SDS011;46090;48.436;11.410;2022-07-23T03:45:53;9.07;;;4.60;;
60225;SDS011;46090;48.436;11.410;2022-07-23T03:48:19;7.68;;;4.03;;
60225;SDS011;46090;48.436;11.410;2022-07-23T03:50:46;7.70;;;4.20;;
60225;SDS011;46090;48.436;11.410;2022-07-23T03:53:14;7.47;;;4.22;;
60225;SDS011;46090;48.436;11.410;2022-07-23T03:55:42;8.63;;;3.90;;
60225;SDS011;46090;48.436;11.410;2022-07-23T03:58:09;13.80;;;4.00;;
60225;SDS011;46090;48.436;11.410;2022-07-23T04:00:36;7.93;;;3.80;;
60225;SDS011;46090;48.436;11.410;2022-07-23T04:03:06;7.00;;;3.78;;
60225;SDS011;46090;48.436;11.410;2022-07-23T04:05:35;7.07;;;3.83;;
60225;SDS011;46090;48.436;11.410;2022-07-23T04:08:05;8.73;;;3.92;;
60225;SDS011;46090;48.436;11.410;2022-07-23T04:10:34;7.68;;;3.70;;
60225;SDS011;46090;48.436;11.410;2022-07-23T04:13:03;7.63;;;3.63;;
60225;SDS011;46090;48.436;11.410;2022-07-23T04:15:29;8.18;;;3.67;;
60225;SDS011;46090;48.436;11.410;2022-07-23T04:17:56;6.13;;;3.33;;
60225;SDS011;46090;48.436;11.410;2022-07-23T04:20:31;6.70;;;4.03;;
60225;SDS011;46090;48.436;11.410;2022-07-23T04:23:05;10.90;;;3.33;;
60225;SDS011;46090;48.436;11.410;2022-07-23T04:25:32;9.82;;;4.32;;
60225;SDS011;46090;48.436;11.410;2022-07-23T04:28:00;6.97;;;3.80;;
60225;SDS011;46090;48.436;11.410;2022-07-23T04:30:28;6.40;;;3.90;;
60225;SDS011;46090;48.436;11.410;2022-07-23T04:32:55;8.85;;;3.95;;
60225;SDS011;46090;48.436;11.410;2022-07-23T04:35:26;5.78;;;3.20;;
60225;SDS011;46090;48.436;11.410;2022-07-23T04:38:00;8.80;;;4.13;;
60225;SDS011;46090;48.436;11.410;2022-07-23T04:40:27;6.45;;;3.50;;
60225;SDS011;46090;48.436;11.410;2022-07-23T04:42:56;8.40;;;4.22;;
60225;SDS011;46090;48.436;11.410;2022-07-23T04:45:24;6.78;;;3.92;;
60225;SDS011;46090;48.436;11.410;2022-07-23T04:47:51;11.48;;;3.80;;
60225;SDS011;46090;48.436;11.410;2022-07-23T04:50:18;5.72;;;3.35;;
60225;SDS011;46090;48.436;11.410;2022-07-23T04:52:50;5.80;;;3.35;;
60225;SDS011;46090;48.436;11.410;2022-07-23T04:55:17;6.65;;;3.50;;
60225;SDS011;46090;48.436;11.410;2022-07-23T04:57:44;10.00;;;3.85;;
60225;SDS011;46090;48.436;11.410;2022-07-23T05:00:11;6.30;;;3.50;;
60225;SDS011;46090;48.436;11.410;2022-07-23T05:02:40;7.00;;;3.42;;
60225;SDS011;46090;48.436;11.410;2022-07-23T05:05:09;6.88;;;3.70;;
60225;SDS011;46090;48.436;11.410;2022-07-23T05:07:38;7.13;;;4.05;;
60225;SDS011;46090;48.436;11.410;2022-07-23T05:10:05;8.20;;;3.42;;
60225;SDS011;46090;48.436;11.410;2022-07-23T05:12:32;6.70;;;3.67;;
60225;SDS011;46090;48.436;11.410;2022-07-23T05:14:59;6.28;;;3.80;;
60225;SDS011;46090;48.436;11.410;2022-07-23T05:17:26;6.15;;;3.50;;
60225;SDS011;46090;48.436;11.410;2022-07-23T05:19:54;10.52;;;3.85;;
60225;SDS011;46090;48.436;11.410;2022-07-23T05:22:29;7.72;;;3.55;;
60225;SDS011;46090;48.436;11.410;2022-07-23T05:24:57;7.65;;;3.50;;
60225;SDS011;46090;48.436;11.410;2022-07-23T05:27:25;6.60;;;3.47;;
60225;SDS011;46090;48.436;11.410;2022-07-23T05:29:52;6.82;;;3.42;;
60225;SDS011;46090;48.436;11.410;2022-07-23T05:32:19;6.00;;;3.35;;
60225;SDS011;46090;48.436;11.410;2022-07-23T05:34:54;8.50;;;3.40;;
60225;SDS011;46090;48.436;11.410;2022-07-23T05:37:20;8.35;;;3.33;;
60225;SDS011;46090;48.436;11.410;2022-07-23T05:39:47;6.25;;;3.40;;
60225;SDS011;46090;48.436;11.410;2022-07-23T05:42:15;9.10;;;3.30;;
60225;SDS011;46090;48.436;11.410;2022-07-23T05:44:42;7.32;;;3.20;;
60225;SDS011;46090;48.436;11.410;2022-07-23T05:47:09;12.05;;;3.42;;
60225;SDS011;46090;48.436;11.410;2022-07-23T05:49:37;8.38;;;3.70;;
60225;SDS011;46090;48.436;11.410;2022-07-23T05:52:23;7.88;;;3.15;;
60225;SDS011;46090;48.436;11.410;2022-07-23T05:55:13;7.72;;;3.75;;
60225;SDS011;46090;48.436;11.410;2022-07-23T05:57:41;7.25;;;3.20;;
60225;SDS011;46090;48.436;11.410;2022-07-23T06:00:08;7.63;;;3.58;;
60225;SDS011;46090;48.436;11.410;2022-07-23T06:02:44;7.03;;;3.47;;
60225;SDS011;46090;48.436;11.410;2022-07-23T06:05:18;6.27;;;3.40;;
60225;SDS011;46090;48.436;11.410;2022-07-23T06:07:47;7.03;;;3.03;;
60225;SDS011;46090;48.436;11.410;2022-07-23T06:10:16;7.68;;;3.53;;
60225;SDS011;46090;48.436;11.410;2022-07-23T06:12:45;5.40;;;3.20;;
60225;SDS011;46090;48.436;11.410;2022-07-23T06:15:12;6.65;;;3.10;;
60225;SDS011;46090;48.436;11.410;2022-07-23T06:17:39;8.52;;;3.30;;
60225;SDS011;46090;48.436;11.410;2022-07-23T06:20:07;6.93;;;4.00;;
60225;SDS011;46090;48.436;11.410;2022-07-23T06:22:38;6.60;;;3.38;;
60225;SDS011;46090;48.436;11.410;2022-07-23T06:25:05;8.32;;;3.22;;
60225;SDS011;46090;48.436;11.410;2022-07-23T06:27:46;8.80;;;3.83;;
60225;SDS011;46090;48.436;11.410;2022-07-23T06:30:14;6.22;;;3.58;;
60225;SDS011;46090;48.436;11.410;2022-07-23T06:32:46;6.97;;;3.30;;
60225;SDS011;46090;48.436;11.410;2022-07-23T06:35:14;13.50;;;3.60;;
60225;SDS011;46090;48.436;11.410;2022-07-23T06:37:41;7.15;;;3.13;;
60225;SDS011;46090;48.436;11.410;2022-07-23T06:40:08;6.80;;;3.90;;
60225;SDS011;46090;48.436;11.410;2022-07-23T06:42:37;6.80;;;3.45;;
60225;SDS011;46090;48.436;11.410;2022-07-23T06:45:06;8.95;;;3.88;;
60225;SDS011;46090;48.436;11.410;2022-07-23T06:47:37;7.15;;;3.90;;
60225;SDS011;46090;48.436;11.410;2022-07-23T06:50:06;7.18;;;3.42;;
60225;SDS011;46090;48.436;11.410;2022-07-23T06:52:34;5.28;;;2.80;;
60225;SDS011;46090;48.436;11.410;2022-07-23T06:55:07;5.97;;;2.92;;
60225;SDS011;46090;48.436;11.410;2022-07-23T06:57:36;6.70;;;3.67;;
60225;SDS011;46090;48.436;11.410;2022-07-23T07:00:05;6.90;;;3.38;;
60225;SDS011;46090;48.436;11.410;2022-07-23T07:02:34;5.90;;;3.28;;
60225;SDS011;46090;48.436;11.410;2022-07-23T07:05:02;6.20;;;3.17;;
60225;SDS011;46090;48.436;11.410;2022-07-23T07:07:33;8.07;;;3.55;;
60225;SDS011;46090;48.436;11.410;2022-07-23T07:10:00;7.57;;;3.35;;
60225;SDS011;46090;48.436;11.410;2022-07-23T07:12:29;7.00;;;3.22;;
60225;SDS011;46090;48.436;11.410;2022-07-23T07:14:55;9.45;;;3.83;;
60225;SDS011;46090;48.436;11.410;2022-07-23T07:17:23;7.75;;;3.78;;
60225;SDS011;46090;48.436;11.410;2022-07-23T07:19:51;6.45;;;3.55;;
60225;SDS011;46090;48.436;11.410;2022-07-23T07:22:19;7.35;;;3.40;;
60225;SDS011;46090;48.436;11.410;2022-07-23T07:24:46;6.68;;;3.80;;
60225;SDS011;46090;48.436;11.410;2022-07-23T07:27:12;8.75;;;3.60;;
60225;SDS011;46090;48.436;11.410;2022-07-23T07:29:40;7.30;;;4.00;;
60225;SDS011;46090;48.436;11.410;2022-07-23T07:32:06;6.57;;;3.75;;
60225;SDS011;46090;48.436;11.410;2022-07-23T07:34:33;7.03;;;3.55;;
60225;SDS011;46090;48.436;11.410;2022-07-23T07:37:00;9.65;;;4.30;;
60225;SDS011;46090;48.436;11.410;2022-07-23T07:39:26;7.63;;;4.15;;
60225;SDS011;46090;48.436;11.410;2022-07-23T07:41:53;14.88;;;4.85;;
60225;SDS011;46090;48.436;11.410;2022-07-23T07:44:20;6.82;;;3.95;;
60225;SDS011;46090;48.436;11.410;2022-07-23T07:46:47;8.18;;;4.47;;
60225;SDS011;46090;48.436;11.410;2022-07-23T07:49:13;8.40;;;4.13;;
60225;SDS011;46090;48.436;11.410;2022-07-23T07:51:41;8.70;;;4.75;;
60225;SDS011;46090;48.436;11.410;2022-07-23T07:54:11;8.15;;;4.50;;
60225;SDS011;46090;48.436;11.410;2022-07-23T07:56:38;8.23;;;4.78;;
60225;SDS011;46090;48.436;11.410;2022-07-23T07:59:06;9.52;;;4.10;;
60225;SDS011;46090;48.436;11.410;2022-07-23T08:01:33;9.00;;;4.13;;
60225;SDS011;46090;48.436;11.410;2022-07-23T08:04:01;7.68;;;4.15;;
60225;SDS011;46090;48.436;11.410;2022-07-23T08:06:29;7.43;;;3.80;;
60225;SDS011;46090;48.436;11.410;2022-07-23T08:08:56;6.82;;;3.55;;
60225;SDS011;46090;48.436;11.410;2022-07-23T08:11:23;9.45;;;4.18;;
60225;SDS011;46090;48.436;11.410;2022-07-23T08:13:51;7.32;;;4.10;;
60225;SDS011;46090;48.436;11.410;2022-07-23T08:16:18;10.35;;;4.70;;
60225;SDS011;46090;48.436;11.410;2022-07-23T08:18:45;9.35;;;4.50;;
60225;SDS011;46090;48.436;11.410;2022-07-23T08:21:12;8.20;;;4.72;;
60225;SDS011;46090;48.436;11.410;2022-07-23T08:23:40;9.60;;;4.57;;
60225;SDS011;46090;48.436;11.410;2022-07-23T08:26:07;9.68;;;4.00;;
60225;SDS011;46090;48.436;11.410;2022-07-23T08:28:33;9.48;;;4.20;;
60225;SDS011;46090;48.436;11.410;2022-07-23T08:31:01;8.50;;;4.40;;
60225;SDS011;46090;48.436;11.410;2022-07-23T08:33:29;7.60;;;4.25;;
60225;SDS011;46090;48.436;11.410;2022-07-23T08:36:00;10.05;;;4.40;;
60225;SDS011;46090;48.436;11.410;2022-07-23T08:38:29;7.97;;;4.70;;
60225;SDS011;46090;48.436;11.410;2022-07-23T08:40:56;8.68;;;4.63;;
60225;SDS011;46090;48.436;11.410;2022-07-23T08:43:28;10.15;;;4.85;;
60225;SDS011;46090;48.436;11.410;2022-07-23T08:45:58;7.88;;;4.53;;
60225;SDS011;46090;48.436;11.410;2022-07-23T08:48:28;8.15;;;5.03;;
60225;SDS011;46090;48.436;11.410;2022-07-23T08:51:00;9.23;;;4.50;;
60225;SDS011;46090;48.436;11.410;2022-07-23T08:53:28;9.88;;;4.15;;
60225;SDS011;46090;48.436;11.410;2022-07-23T08:55:57;8.02;;;4.75;;
60225;SDS011;46090;48.436;11.410;2022-07-23T08:58:25;7.60;;;4.88;;
60225;SDS011;46090;48.436;11.410;2022-07-23T09:00:54;8.10;;;4.82;;
60225;SDS011;46090;48.436;11.410;2022-07-23T09:03:29;8.90;;;4.60;;
60225;SDS011;46090;48.436;11.410;2022-07-23T09:05:58;8.07;;;4.75;;
60225;SDS011;46090;48.436;11.410;2022-07-23T09:08:40;7.97;;;3.92;;
60225;SDS011;46090;48.436;11.410;2022-07-23T09:11:13;7.00;;;4.28;;
60225;SDS011;46090;48.436;11.410;2022-07-23T09:13:47;8.18;;;4.32;;
60225;SDS011;46090;48.436;11.410;2022-07-23T09:16:23;9.32;;;4.35;;
60225;SDS011;46090;48.436;11.410;2022-07-23T09:18:54;9.70;;;5.20;;
60225;SDS011;46090;48.436;11.410;2022-07-23T09:26:21;5.75;;;3.60;;
60225;SDS011;46090;48.436;11.410;2022-07-23T09:28:57;8.48;;;3.47;;
60225;SDS011;46090;48.436;11.410;2022-07-23T09:31:30;6.90;;;3.95;;
60225;SDS011;46090;48.436;11.410;2022-07-23T09:34:12;7.50;;;4.13;;
60225;SDS011;46090;48.436;11.410;2022-07-23T09:36:51;7.35;;;4.05;;
60225;SDS011;46090;48.436;11.410;2022-07-23T09:39:30;5.82;;;3.30;;
60225;SDS011;46090;48.436;11.410;2022-07-23T09:44:49;8.23;;;3.80;;
60225;SDS011;46090;48.436;11.410;2022-07-23T09:47:17;9.57;;;3.53;;
60225;SDS011;46090;48.436;11.410;2022-07-23T09:50:04;7.45;;;3.22;;
60225;SDS011;46090;48.436;11.410;2022-07-23T09:52:36;6.57;;;3.28;;
60225;SDS011;46090;48.436;11.410;2022-07-23T09:55:08;7.03;;;2.88;;
60225;SDS011;46090;48.436;11.410;2022-07-23T09:57:35;5.95;;;3.50;;
60225;SDS011;46090;48.436;11.410;2022-07-23T10:00:04;6.35;;;3.10;;
60225;SDS011;46090;48.436;11.410;2022-07-23T10:02:34;6.82;;;3.60;;
60225;SDS011;46090;48.436;11.410;2022-07-23T10:05:21;7.35;;;3.35;;
60225;SDS011;46090;48.436;11.410;2022-07-23T10:08:13;6.68;;;3.67;;
60225;SDS011;46090;48.436;11.410;2022-07-23T10:11:02;8.85;;;3.55;;
60225;SDS011;46090;48.436;11.410;2022-07-23T10:13:51;6.03;;;3.22;;
60225;SDS011;46090;48.436;11.410;2022-07-23T10:16:47;8.45;;;3.55;;
60225;SDS011;46090;48.436;11.410;2022-07-23T10:19:16;5.68;;;3.05;;
60225;SDS011;46090;48.436;11.410;2022-07-23T10:21:49;6.88;;;3.83;;
60225;SDS011;46090;48.436;11.410;2022-07-23T10:32:20;6.03;;;3.20;;
60225;SDS011;46090;48.436;11.410;2022-07-23T10:34:52;6.00;;;3.03;;
60225;SDS011;46090;48.436;11.410;2022-07-23T10:42:36;5.50;;;2.90;;
60225;SDS011;46090;48.436;11.410;2022-07-23T10:48:12;8.65;;;3.70;;
60225;SDS011;46090;48.436;11.410;2022-07-23T10:56:16;5.32;;;3.05;;
60225;SDS011;46090;48.436;11.410;2022-07-23T10:59:03;6.55;;;3.15;;
60225;SDS011;46090;48.436;11.410;2022-07-23T11:01:35;7.70;;;3.50;;
60225;SDS011;46090;48.436;11.410;2022-07-23T11:04:05;5.55;;;3.10;;
60225;SDS011;46090;48.436;11.410;2022-07-23T11:09:26;7.93;;;3.45;;
60225;SDS011;46090;48.436;11.410;2022-07-23T11:15:01;7.20;;;3.28;;
60225;SDS011;46090;48.436;11.410;2022-07-23T11:17:40;5.55;;;2.80;;
60225;SDS011;46090;48.436;11.410;2022-07-23T11:20:26;7.18;;;3.70;;
60225;SDS011;46090;48.436;11.410;2022-07-23T11:22:57;7.82;;;3.42;;
60225;SDS011;46090;48.436;11.410;2022-07-23T11:27:55;5.80;;;3.47;;
60225;SDS011;46090;48.436;11.410;2022-07-23T11:32:54;6.47;;;3.55;;
60225;SDS011;46090;48.436;11.410;2022-07-23T11:35:41;8.68;;;3.78;;
60225;SDS011;46090;48.436;11.410;2022-07-23T11:38:22;5.72;;;3.17;;
60225;SDS011;46090;48.436;11.410;2022-07-23T11:40:51;6.07;;;3.30;;
60225;SDS011;46090;48.436;11.410;2022-07-23T11:43:19;7.65;;;3.40;;
60225;SDS011;46090;48.436;11.410;2022-07-23T11:45:47;5.10;;;3.00;;
60225;SDS011;46090;48.436;11.410;2022-07-23T11:50:44;6.75;;;3.03;;
60225;SDS011;46090;48.436;11.410;2022-07-23T11:53:12;6.05;;;3.40;;
60225;SDS011;46090;48.436;11.410;2022-07-23T11:55:40;6.00;;;3.20;;
60225;SDS011;46090;48.436;11.410;2022-07-23T11:58:07;6.80;;;3.40;;
60225;SDS011;46090;48.436;11.410;2022-07-23T12:00:34;5.63;;;3.30;;
60225;SDS011;46090;48.436;11.410;2022-07-23T12:03:08;6.22;;;3.35;;
60225;SDS011;46090;48.436;11.410;2022-07-23T12:05:38;5.82;;;3.30;;
60225;SDS011;46090;48.436;11.410;2022-07-23T12:08:07;7.43;;;3.53;;
60225;SDS011;46090;48.436;11.410;2022-07-23T12:10:37;6.75;;;3.85;;
60225;SDS011;46090;48.436;11.410;2022-07-23T12:13:06;6.78;;;3.15;;
60225;SDS011;46090;48.436;11.410;2022-07-23T12:15:39;7.07;;;3.25;;
60225;SDS011;46090;48.436;11.410;2022-07-23T12:18:09;6.07;;;3.30;;
60225;SDS011;46090;48.436;11.410;2022-07-23T12:20:45;6.57;;;3.35;;
60225;SDS011;46090;48.436;11.410;2022-07-23T12:23:15;11.00;;;3.60;;
60225;SDS011;46090;48.436;11.410;2022-07-23T12:25:48;6.53;;;3.53;;
60225;SDS011;46090;48.436;11.410;2022-07-23T12:28:17;9.63;;;3.92;;
60225;SDS011;46090;48.436;11.410;2022-07-23T12:33:26;6.72;;;3.60;;
60225;SDS011;46090;48.436;11.410;2022-07-23T12:36:04;7.40;;;3.50;;
60225;SDS011;46090;48.436;11.410;2022-07-23T12:38:40;7.10;;;3.35;;
60225;SDS011;46090;48.436;11.410;2022-07-23T12:41:09;7.43;;;3.67;;
60225;SDS011;46090;48.436;11.410;2022-07-23T12:43:37;6.53;;;3.63;;
60225;SDS011;46090;48.436;11.410;2022-07-23T12:51:17;7.82;;;3.50;;
60225;SDS011;46090;48.436;11.410;2022-07-23T12:53:53;5.88;;;3.45;;
60225;SDS011;46090;48.436;11.410;2022-07-23T12:56:26;7.43;;;4.47;;
60225;SDS011;46090;48.436;11.410;2022-07-23T13:01:40;8.23;;;4.45;;
60225;SDS011;46090;48.436;11.410;2022-07-23T13:06:51;7.57;;;3.83;;
60225;SDS011;46090;48.436;11.410;2022-07-23T13:09:24;6.70;;;3.50;;
60225;SDS011;46090;48.436;11.410;2022-07-23T13:11:52;7.38;;;4.10;;
60225;SDS011;46090;48.436;11.410;2022-07-23T13:14:23;9.55;;;4.10;;
60225;SDS011;46090;48.436;11.410;2022-07-23T13:16:53;6.53;;;4.00;;
60225;SDS011;46090;48.436;11.410;2022-07-23T13:19:22;8.00;;;4.25;;
60225;SDS011;46090;48.436;11.410;2022-07-23T13:21:53;6.85;;;4.03;;
60225;SDS011;46090;48.436;11.410;2022-07-23T13:24:21;8.10;;;4.05;;
60225;SDS011;46090;48.436;11.410;2022-07-23T13:26:47;7.13;;;4.53;;
60225;SDS011;46090;48.436;11.410;2022-07-23T13:29:18;8.00;;;4.07;;
60225;SDS011;46090;48.436;11.410;2022-07-23T13:31:47;8.05;;;3.97;;
60225;SDS011;46090;48.436;11.410;2022-07-23T13:34:16;9.63;;;4.50;;
60225;SDS011;46090;48.436;11.410;2022-07-23T13:36:44;8.23;;;4.25;;
60225;SDS011;46090;48.436;11.410;2022-07-23T13:39:12;7.40;;;4.32;;
60225;SDS011;46090;48.436;11.410;2022-07-23T13:41:38;7.55;;;4.68;;
60225;SDS011;46090;48.436;11.410;2022-07-23T13:44:15;6.63;;;4.13;;
60225;SDS011;46090;48.436;11.410;2022-07-23T13:46:42;6.95;;;4.35;;
60225;SDS011;46090;48.436;11.410;2022-07-23T13:49:10;7.40;;;4.47;;
60225;SDS011;46090;48.436;11.410;2022-07-23T13:51:39;7.53;;;3.83;;
60225;SDS011;46090;48.436;11.410;2022-07-23T13:54:08;7.13;;;4.32;;
60225;SDS011;46090;48.436;11.410;2022-07-23T13:56:36;8.02;;;4.22;;
60225;SDS011;46090;48.436;11.410;2022-07-23T13:59:05;7.50;;;4.15;;
60225;SDS011;46090;48.436;11.410;2022-07-23T14:01:33;6.28;;;3.97;;
60225;SDS011;46090;48.436;11.410;2022-07-23T14:04:17;7.25;;;4.35;;
60225;SDS011;46090;48.436;11.410;2022-07-23T14:06:45;9.10;;;4.53;;
60225;SDS011;46090;48.436;11.410;2022-07-23T14:09:19;7.65;;;4.40;;
60225;SDS011;46090;48.436;11.410;2022-07-23T14:11:50;7.32;;;4.57;;
60225;SDS011;46090;48.436;11.410;2022-07-23T14:14:18;6.35;;;4.07;;
60225;SDS011;46090;48.436;11.410;2022-07-23T14:16:45;8.90;;;4.28;;
60225;SDS011;46090;48.436;11.410;2022-07-23T14:19:12;6.97;;;4.00;;
60225;SDS011;46090;48.436;11.410;2022-07-23T14:21:39;7.88;;;4.13;;
60225;SDS011;46090;48.436;11.410;2022-07-23T14:24:08;7.68;;;4.40;;
60225;SDS011;46090;48.436;11.410;2022-07-23T14:26:37;6.65;;;4.43;;
60225;SDS011;46090;48.436;11.410;2022-07-23T14:29:05;8.23;;;4.30;;
60225;SDS011;46090;48.436;11.410;2022-07-23T14:31:34;6.63;;;4.20;;
60225;SDS011;46090;48.436;11.410;2022-07-23T14:34:02;8.52;;;4.30;;
60225;SDS011;46090;48.436;11.410;2022-07-23T14:36:30;7.60;;;4.28;;
60225;SDS011;46090;48.436;11.410;2022-07-23T14:38:57;7.00;;;4.55;;
60225;SDS011;46090;48.436;11.410;2022-07-23T14:41:24;7.40;;;3.90;;
60225;SDS011;46090;48.436;11.410;2022-07-23T14:43:53;8.15;;;4.68;;
60225;SDS011;46090;48.436;11.410;2022-07-23T14:46:20;7.75;;;3.97;;
60225;SDS011;46090;48.436;11.410;2022-07-23T14:48:48;6.78;;;3.38;;
60225;SDS011;46090;48.436;11.410;2022-07-23T14:51:16;6.80;;;3.22;;
60225;SDS011;46090;48.436;11.410;2022-07-23T14:53:45;6.18;;;2.70;;
60225;SDS011;46090;48.436;11.410;2022-07-23T14:56:14;6.32;;;3.05;;
60225;SDS011;46090;48.436;11.410;2022-07-23T14:58:41;5.35;;;3.00;;
60225;SDS011;46090;48.436;11.410;2022-07-23T15:01:12;6.40;;;3.10;;
60225;SDS011;46090;48.436;11.410;2022-07-23T15:03:40;6.40;;;3.38;;
60225;SDS011;46090;48.436;11.410;2022-07-23T15:06:09;6.40;;;3.70;;
60225;SDS011;46090;48.436;11.410;2022-07-23T15:08:39;6.10;;;2.85;;
60225;SDS011;46090;48.436;11.410;2022-07-23T15:11:06;6.18;;;3.20;;
60225;SDS011;46090;48.436;11.410;2022-07-23T15:13:37;6.80;;;2.92;;
60225;SDS011;46090;48.436;11.410;2022-07-23T15:16:06;6.25;;;3.17;;
60225;SDS011;46090;48.436;11.410;2022-07-23T15:18:36;7.18;;;3.25;;
60225;SDS011;46090;48.436;11.410;2022-07-23T15:21:03;7.47;;;3.50;;
60225;SDS011;46090;48.436;11.410;2022-07-23T15:23:31;5.50;;;3.33;;
60225;SDS011;46090;48.436;11.410;2022-07-23T15:25:59;5.72;;;3.28;;
60225;SDS011;46090;48.436;11.410;2022-07-23T15:28:26;6.28;;;3.20;;
60225;SDS011;46090;48.436;11.410;2022-07-23T15:30:53;6.75;;;3.72;;
60225;SDS011;46090;48.436;11.410;2022-07-23T15:33:20;7.03;;;3.90;;
60225;SDS011;46090;48.436;11.410;2022-07-23T15:35:48;6.13;;;3.20;;
60225;SDS011;46090;48.436;11.410;2022-07-23T15:38:16;6.18;;;3.55;;
60225;SDS011;46090;48.436;11.410;2022-07-23T15:40:53;5.57;;;3.60;;